Time,TemperatureF,DewpointF,PressureIn,WindDirection,WindDirectionDegrees,WindSpeedMPH,WindSpeedGustMPH,Humidity,HourlyPrecipIn,Conditions,Clouds,dailyrainin,SoftwareType,DateUTC
2013-06-02 00:00:00,62.8,61.7,29.97,SSW,211,7.0,13.0,96,0.00,,,0.00,meteohub,2013-06-02 04:00:00,
2013-06-02 00:01:00,62.8,61.7,29.97,SSW,212,4.0,13.0,96,0.00,,,0.00,meteohub,2013-06-02 04:01:00,
2013-06-02 00:02:00,62.8,61.7,29.97,SW,230,6.0,13.0,96,0.00,,,0.00,meteohub,2013-06-02 04:02:00,
2013-06-02 00:07:00,62.4,61.3,29.97,SW,222,8.0,13.0,96,0.00,,,0.00,meteohub,2013-06-02 04:07:00,
2013-06-02 00:12:00,62.2,61.2,29.97,SSW,212,9.0,12.0,96,0.00,,,0.00,meteohub,2013-06-02 04:12:00,
2013-06-02 00:17:00,62.2,61.2,29.97,SW,215,7.0,11.0,96,0.00,,,0.00,meteohub,2013-06-02 04:17:00,
2013-06-02 00:22:00,62.1,61.0,29.97,SW,221,3.0,11.0,96,0.00,,,0.00,meteohub,2013-06-02 04:22:00,
2013-06-02 00:27:00,62.1,61.0,29.96,SW,230,9.0,11.0,96,0.00,,,0.00,meteohub,2013-06-02 04:27:00,
2013-06-02 00:32:00,61.9,60.8,29.96,SSW,195,4.0,11.0,96,0.00,,,0.00,meteohub,2013-06-02 04:32:00,
2013-06-02 00:37:00,61.9,61.0,29.96,SW,228,4.0,10.0,97,0.00,,,0.00,meteohub,2013-06-02 04:37:00,
2013-06-02 00:42:00,61.5,60.4,29.96,WSW,252,2.0,10.0,96,0.00,,,0.00,meteohub,2013-06-02 04:42:00,
2013-06-02 00:48:00,61.3,60.3,29.96,WSW,239,3.0,10.0,96,0.00,,,0.00,meteohub,2013-06-02 04:48:00,
2013-06-02 00:53:00,61.2,60.1,29.96,WSW,252,4.0,10.0,96,0.00,,,0.00,meteohub,2013-06-02 04:53:00,
2013-06-02 00:58:00,61.2,60.3,29.96,SW,217,4.0,9.0,97,0.00,,,0.00,meteohub,2013-06-02 04:58:00,
2013-06-02 01:03:00,61.0,60.1,29.96,WSW,250,3.0,8.0,97,0.00,,,0.00,meteohub,2013-06-02 05:03:00,
2013-06-02 01:08:00,61.0,60.1,29.96,West,259,4.0,10.0,97,0.00,,,0.00,meteohub,2013-06-02 05:08:00,
2013-06-02 01:13:00,61.0,60.1,29.96,SW,224,5.0,10.0,97,0.00,,,0.00,meteohub,2013-06-02 05:13:00,
2013-06-02 01:18:00,61.0,60.1,29.95,SW,217,6.0,10.0,97,0.00,,,0.00,meteohub,2013-06-02 05:18:00,
2013-06-02 01:23:00,61.0,60.1,29.95,SSW,200,3.0,13.0,97,0.00,,,0.00,meteohub,2013-06-02 05:23:00,
2013-06-02 01:28:00,61.0,60.1,29.95,SW,222,10.0,13.0,97,0.00,,,0.00,meteohub,2013-06-02 05:28:00,
2013-06-02 01:33:00,61.0,60.4,29.95,WSW,242,6.0,13.0,98,0.00,,,0.00,meteohub,2013-06-02 05:33:00,
2013-06-02 01:38:00,60.8,60.3,29.95,SSW,203,7.0,11.0,98,0.00,,,0.00,meteohub,2013-06-02 05:38:00,
2013-06-02 01:43:00,60.6,59.7,29.94,West,270,3.0,10.0,97,0.00,,,0.00,meteohub,2013-06-02 05:43:00,
2013-06-02 01:48:00,60.6,60.1,29.94,SW,225,2.0,10.0,98,0.00,,,0.00,meteohub,2013-06-02 05:48:00,
2013-06-02 01:53:00,60.6,60.1,29.94,West,266,5.0,10.0,98,0.00,,,0.00,meteohub,2013-06-02 05:53:00,
2013-06-02 01:58:00,60.6,60.1,29.94,SW,228,4.0,8.0,98,0.00,,,0.00,meteohub,2013-06-02 05:58:00,
2013-06-02 02:03:00,60.8,60.3,29.94,SW,235,5.0,8.0,98,0.00,,,0.00,meteohub,2013-06-02 06:03:00,
2013-06-02 02:08:00,60.8,60.3,29.94,SW,222,6.0,8.0,98,0.00,,,0.00,meteohub,2013-06-02 06:08:00,
2013-06-02 02:13:00,60.8,60.3,29.94,SSW,203,4.0,8.0,98,0.00,,,0.00,meteohub,2013-06-02 06:13:00,
2013-06-02 02:18:00,60.6,60.1,29.94,SW,222,4.0,8.0,98,0.00,,,0.00,meteohub,2013-06-02 06:18:00,
2013-06-02 02:23:00,60.6,60.1,29.94,SW,217,3.0,8.0,98,0.00,,,0.00,meteohub,2013-06-02 06:23:00,
2013-06-02 02:28:00,60.8,60.3,29.94,South,186,5.0,10.0,98,0.00,,,0.00,meteohub,2013-06-02 06:28:00,
2013-06-02 02:33:00,61.0,60.4,29.94,South,184,6.0,10.0,98,0.00,,,0.00,meteohub,2013-06-02 06:33:00,
2013-06-02 02:38:00,61.2,60.6,29.94,SSW,200,3.0,14.0,98,0.00,,,0.00,meteohub,2013-06-02 06:38:00,
2013-06-02 02:43:00,61.3,60.8,29.93,SW,224,8.0,14.0,98,0.00,,,0.00,meteohub,2013-06-02 06:43:00,
2013-06-02 02:48:00,61.7,61.2,29.93,WSW,253,8.0,14.0,98,0.00,,,0.00,meteohub,2013-06-02 06:48:00,
2013-06-02 02:53:00,61.9,61.3,29.93,SSW,210,8.0,13.0,98,0.00,,,0.00,meteohub,2013-06-02 06:53:00,
2013-06-02 02:59:00,62.1,61.2,29.93,SSW,203,9.0,13.0,97,0.00,,,0.00,meteohub,2013-06-02 06:59:00,
2013-06-02 03:04:00,62.1,61.2,29.93,South,172,7.0,14.0,97,0.00,,,0.00,meteohub,2013-06-02 07:04:00,
2013-06-02 03:09:00,62.1,61.2,29.93,SW,236,7.0,14.0,97,0.00,,,0.00,meteohub,2013-06-02 07:09:00,
2013-06-02 03:14:00,62.1,61.2,29.93,SSW,194,6.0,14.0,97,0.00,,,0.00,meteohub,2013-06-02 07:14:00,
2013-06-02 03:19:00,62.2,61.3,29.93,SW,221,9.0,13.0,97,0.00,,,0.00,meteohub,2013-06-02 07:19:00,
2013-06-02 03:24:00,62.2,61.3,29.93,SSW,204,9.0,13.0,97,0.00,,,0.00,meteohub,2013-06-02 07:24:00,
2013-06-02 03:29:00,62.4,61.5,29.93,WSW,240,14.0,14.0,97,0.00,,,0.00,meteohub,2013-06-02 07:29:00,
2013-06-02 03:34:00,62.6,61.7,29.93,SW,218,7.0,13.0,97,0.00,,,0.00,meteohub,2013-06-02 07:34:00,
2013-06-02 03:39:00,62.8,61.9,29.93,SW,224,10.0,16.0,97,0.00,,,0.00,meteohub,2013-06-02 07:39:00,
2013-06-02 03:44:00,62.8,61.9,29.93,West,276,9.0,16.0,97,0.00,,,0.00,meteohub,2013-06-02 07:44:00,
2013-06-02 03:49:00,62.8,61.9,29.93,WSW,242,4.0,17.0,97,0.00,,,0.00,meteohub,2013-06-02 07:49:00,
2013-06-02 03:54:00,62.8,62.2,29.93,SW,219,13.0,18.0,98,0.00,,,0.00,meteohub,2013-06-02 07:54:00,
2013-06-02 03:59:00,63.0,62.4,29.93,SW,232,5.0,18.0,98,0.00,,,0.00,meteohub,2013-06-02 07:59:00,
2013-06-02 04:04:00,63.0,62.4,29.93,SW,225,9.0,18.0,98,0.00,,,0.00,meteohub,2013-06-02 08:04:00,
2013-06-02 04:09:00,63.0,62.4,29.93,WSW,239,6.0,17.0,98,0.00,,,0.00,meteohub,2013-06-02 08:09:00,
2013-06-02 04:14:00,62.8,62.2,29.92,SSW,201,9.0,17.0,98,0.00,,,0.00,meteohub,2013-06-02 08:14:00,
2013-06-02 04:19:00,62.8,62.2,29.93,WSW,238,5.0,17.0,98,0.00,,,0.00,meteohub,2013-06-02 08:19:00,
2013-06-02 04:24:00,62.4,61.9,29.93,South,174,6.0,17.0,98,0.00,,,0.00,meteohub,2013-06-02 08:24:00,
2013-06-02 04:29:00,62.4,61.9,29.93,SSW,210,6.0,17.0,98,0.00,,,0.00,meteohub,2013-06-02 08:29:00,
2013-06-02 04:34:00,62.4,61.9,29.93,West,267,7.0,17.0,98,0.00,,,0.00,meteohub,2013-06-02 08:34:00,
2013-06-02 04:39:00,62.2,61.7,29.92,SW,215,11.0,13.0,98,0.00,,,0.00,meteohub,2013-06-02 08:39:00,
2013-06-02 04:44:00,62.2,61.7,29.92,SSW,203,8.0,17.0,98,0.00,,,0.00,meteohub,2013-06-02 08:44:00,
2013-06-02 04:49:00,62.1,61.5,29.92,SSW,200,6.0,17.0,98,0.00,,,0.00,meteohub,2013-06-02 08:49:00,
2013-06-02 04:54:00,61.9,61.3,29.93,SSW,197,6.0,17.0,98,0.00,,,0.00,meteohub,2013-06-02 08:54:00,
2013-06-02 04:59:00,61.9,61.3,29.93,SSW,208,7.0,12.0,98,0.00,,,0.00,meteohub,2013-06-02 08:59:00,
2013-06-02 05:04:00,61.9,61.3,29.93,SSW,205,3.0,12.0,98,0.00,,,0.00,meteohub,2013-06-02 09:04:00,
2013-06-02 05:10:00,61.9,61.3,29.93,WSW,238,9.0,12.0,98,0.00,,,0.00,meteohub,2013-06-02 09:10:00,
2013-06-02 05:15:00,61.9,61.5,29.93,SW,236,12.0,12.0,99,0.00,,,0.00,meteohub,2013-06-02 09:15:00,
2013-06-02 05:20:00,62.1,61.7,29.93,SW,232,9.0,12.0,99,0.00,,,0.00,meteohub,2013-06-02 09:20:00,
2013-06-02 05:25:00,62.2,61.9,29.93,SW,215,9.0,15.0,99,0.00,,,0.00,meteohub,2013-06-02 09:25:00,
2013-06-02 05:30:00,62.2,61.9,29.93,WSW,252,2.0,17.0,99,0.00,,,0.00,meteohub,2013-06-02 09:30:00,
2013-06-02 05:35:00,62.2,61.9,29.93,SW,219,9.0,18.0,99,0.00,,,0.00,meteohub,2013-06-02 09:35:00,
2013-06-02 05:40:00,62.4,62.1,29.93,SW,221,7.0,18.0,99,0.00,,,0.00,meteohub,2013-06-02 09:40:00,
2013-06-02 05:45:00,62.2,61.9,29.93,SSW,204,12.0,18.0,99,0.00,,,0.00,meteohub,2013-06-02 09:45:00,
2013-06-02 05:50:00,62.2,61.9,29.93,WSW,249,7.0,18.0,99,0.00,,,0.00,meteohub,2013-06-02 09:50:00,
2013-06-02 05:55:00,62.2,61.9,29.93,SW,220,11.0,18.0,99,0.00,,,0.00,meteohub,2013-06-02 09:55:00,
2013-06-02 06:00:00,62.2,61.9,29.93,SW,221,8.0,18.0,99,0.00,,,0.00,meteohub,2013-06-02 10:00:00,
2013-06-02 06:05:00,62.2,61.9,29.94,SW,214,12.0,18.0,99,0.00,,,0.00,meteohub,2013-06-02 10:05:00,
2013-06-02 06:10:00,62.2,61.9,29.93,SSW,210,7.0,15.0,99,0.00,,,0.00,meteohub,2013-06-02 10:10:00,
2013-06-02 06:15:00,62.2,61.9,29.94,SW,231,5.0,15.0,99,0.00,,,0.00,meteohub,2013-06-02 10:15:00,
2013-06-02 06:20:00,62.2,61.9,29.94,WSW,252,12.0,16.0,99,0.00,,,0.00,meteohub,2013-06-02 10:20:00,
2013-06-02 06:25:00,62.1,61.7,29.94,SSW,207,9.0,16.0,99,0.00,,,0.00,meteohub,2013-06-02 10:25:00,
2013-06-02 06:30:00,62.1,61.7,29.94,SSW,207,5.0,16.0,99,0.00,,,0.00,meteohub,2013-06-02 10:30:00,
2013-06-02 06:35:00,62.1,61.7,29.94,SW,228,11.0,15.0,99,0.00,,,0.00,meteohub,2013-06-02 10:35:00,
2013-06-02 06:40:00,62.1,61.7,29.93,SSW,198,10.0,13.0,99,0.00,,,0.00,meteohub,2013-06-02 10:40:00,
2013-06-02 06:45:00,61.9,61.9,29.93,SW,221,6.0,13.0,100,0.00,,,0.00,meteohub,2013-06-02 10:45:00,
2013-06-02 06:50:00,62.1,62.1,29.93,SW,219,9.0,16.0,100,0.00,,,0.00,meteohub,2013-06-02 10:50:00,
2013-06-02 06:55:00,62.1,62.1,29.93,WSW,238,6.0,16.0,100,0.00,,,0.00,meteohub,2013-06-02 10:55:00,
2013-06-02 07:00:00,62.1,62.1,29.93,SW,219,6.0,14.0,100,0.00,,,0.00,meteohub,2013-06-02 11:00:00,
2013-06-02 07:05:00,62.1,62.1,29.93,SW,222,3.0,14.0,100,0.00,,,0.00,meteohub,2013-06-02 11:05:00,
2013-06-02 07:10:00,62.1,62.1,29.93,SSW,207,4.0,14.0,100,0.00,,,0.00,meteohub,2013-06-02 11:10:00,
2013-06-02 07:15:00,62.1,62.1,29.93,South,191,6.0,12.0,100,0.00,,,0.00,meteohub,2013-06-02 11:15:00,
2013-06-02 07:20:00,62.1,62.1,29.93,SW,221,6.0,14.0,100,0.00,,,0.00,meteohub,2013-06-02 11:20:00,
2013-06-02 07:25:00,62.1,62.1,29.93,SW,229,9.0,14.0,100,0.00,,,0.00,meteohub,2013-06-02 11:25:00,
2013-06-02 07:30:00,61.9,61.9,29.93,SW,217,4.0,14.0,100,0.00,,,0.00,meteohub,2013-06-02 11:30:00,
2013-06-02 07:35:00,61.9,61.9,29.93,SW,222,8.0,14.0,100,0.00,,,0.00,meteohub,2013-06-02 11:35:00,
2013-06-02 07:40:00,62.1,62.1,29.93,SSW,200,6.0,14.0,100,0.00,,,0.00,meteohub,2013-06-02 11:40:00,
2013-06-02 07:45:00,62.1,62.1,29.93,SSW,200,6.0,12.0,100,0.00,,,0.00,meteohub,2013-06-02 11:45:00,
2013-06-02 07:50:00,62.1,62.1,29.93,SW,217,8.0,12.0,100,0.00,,,0.00,meteohub,2013-06-02 11:50:00,
2013-06-02 07:55:00,62.1,62.1,29.93,SSW,207,5.0,14.0,100,0.00,,,0.00,meteohub,2013-06-02 11:55:00,
2013-06-02 08:00:00,62.1,62.1,29.93,SW,219,12.0,14.0,100,0.00,,,0.00,meteohub,2013-06-02 12:00:00,
2013-06-02 08:05:00,62.1,62.1,29.93,SSW,207,7.0,14.0,100,0.00,,,0.00,meteohub,2013-06-02 12:05:00,
2013-06-02 08:10:00,62.2,62.2,29.93,SSW,210,7.0,13.0,100,0.00,,,0.00,meteohub,2013-06-02 12:10:00,
2013-06-02 08:16:00,62.1,62.1,29.93,SW,215,11.0,12.0,100,0.00,,,0.00,meteohub,2013-06-02 12:16:00,
2013-06-02 08:21:00,61.9,61.9,29.93,South,188,11.0,12.0,100,0.00,,,0.00,meteohub,2013-06-02 12:21:00,
2013-06-02 08:26:00,61.7,61.7,29.93,SSW,201,7.0,12.0,100,0.00,,,0.00,meteohub,2013-06-02 12:26:00,
2013-06-02 08:31:00,61.9,61.9,29.93,WSW,238,6.0,11.0,100,0.00,,,0.00,meteohub,2013-06-02 12:31:00,
2013-06-02 08:36:00,61.9,61.9,29.93,SSW,198,11.0,11.0,100,0.00,,,0.00,meteohub,2013-06-02 12:36:00,
2013-06-02 08:41:00,61.9,61.9,29.93,SW,217,4.0,12.0,100,0.00,,,0.00,meteohub,2013-06-02 12:41:00,
2013-06-02 08:46:00,62.1,62.1,29.93,SSW,204,7.0,12.0,100,0.00,,,0.00,meteohub,2013-06-02 12:46:00,
2013-06-02 08:51:00,62.1,62.1,29.92,SW,214,9.0,12.0,100,0.00,,,0.00,meteohub,2013-06-02 12:51:00,
2013-06-02 08:56:00,62.1,62.1,29.93,SSW,193,10.0,11.0,100,0.00,,,0.00,meteohub,2013-06-02 12:56:00,
2013-06-02 09:01:00,62.1,62.1,29.92,SSW,210,8.0,13.0,100,0.00,,,0.00,meteohub,2013-06-02 13:01:00,
2013-06-02 09:06:00,62.1,62.1,29.93,SSW,205,8.0,14.0,100,0.00,,,0.00,meteohub,2013-06-02 13:06:00,
2013-06-02 09:11:00,62.2,62.2,29.92,SSW,207,7.0,14.0,100,0.00,,,0.00,meteohub,2013-06-02 13:11:00,
2013-06-02 09:16:00,62.4,62.4,29.92,SSW,210,5.0,14.0,100,0.00,,,0.00,meteohub,2013-06-02 13:16:00,
2013-06-02 09:21:00,62.6,62.6,29.92,SSW,205,7.0,12.0,100,0.00,,,0.00,meteohub,2013-06-02 13:21:00,
2013-06-02 09:26:00,62.8,62.8,29.92,SSW,203,8.0,12.0,100,0.00,,,0.00,meteohub,2013-06-02 13:26:00,
2013-06-02 09:31:00,63.0,62.6,29.92,SSW,205,10.0,11.0,99,0.00,,,0.00,meteohub,2013-06-02 13:31:00,
2013-06-02 09:36:00,63.1,62.8,29.92,West,263,11.0,12.0,99,0.00,,,0.00,meteohub,2013-06-02 13:36:00,
2013-06-02 09:41:00,63.3,63.0,29.91,SSW,197,9.0,12.0,99,0.00,,,0.00,meteohub,2013-06-02 13:41:00,
2013-06-02 09:46:00,63.5,63.1,29.91,SSW,201,8.0,13.0,99,0.00,,,0.00,meteohub,2013-06-02 13:46:00,
2013-06-02 09:51:00,63.9,63.5,29.91,South,180,5.0,14.0,99,0.00,,,0.00,meteohub,2013-06-02 13:51:00,
2013-06-02 09:56:00,64.0,63.7,29.91,SW,220,8.0,14.0,99,0.00,,,0.00,meteohub,2013-06-02 13:56:00,
2013-06-02 10:01:00,64.4,63.9,29.91,SW,217,8.0,14.0,98,0.00,,,0.00,meteohub,2013-06-02 14:01:00,
2013-06-02 10:06:00,64.6,63.7,29.91,South,181,13.0,17.0,97,0.00,,,0.00,meteohub,2013-06-02 14:06:00,
2013-06-02 10:11:00,64.4,63.3,29.91,SSW,193,10.0,17.0,96,0.00,,,0.00,meteohub,2013-06-02 14:11:00,
2013-06-02 10:16:00,64.2,63.1,29.91,South,187,13.0,17.0,96,0.00,,,0.00,meteohub,2013-06-02 14:16:00,
2013-06-02 10:21:00,64.6,63.5,29.91,SSW,203,12.0,17.0,96,0.00,,,0.00,meteohub,2013-06-02 14:21:00,
2013-06-02 10:27:00,64.8,63.3,29.91,SSW,201,12.0,16.0,95,0.00,,,0.00,meteohub,2013-06-02 14:27:00,
2013-06-02 10:32:00,64.9,63.1,29.91,SSW,201,13.0,16.0,94,0.00,,,0.00,meteohub,2013-06-02 14:32:00,
2013-06-02 10:37:00,64.9,63.1,29.91,SSW,200,12.0,17.0,94,0.00,,,0.00,meteohub,2013-06-02 14:37:00,
2013-06-02 10:42:00,64.9,63.1,29.91,South,181,10.0,17.0,94,0.00,,,0.00,meteohub,2013-06-02 14:42:00,
2013-06-02 10:47:00,65.1,63.3,29.91,SSW,200,10.0,16.0,94,0.00,,,0.00,meteohub,2013-06-02 14:47:00,
2013-06-02 10:52:00,65.5,63.3,29.91,SSW,198,10.0,15.0,93,0.00,,,0.00,meteohub,2013-06-02 14:52:00,
2013-06-02 10:57:00,66.0,63.9,29.91,SSW,208,10.0,15.0,93,0.00,,,0.00,meteohub,2013-06-02 14:57:00,
2013-06-02 11:02:00,66.7,64.4,29.91,SW,233,10.0,15.0,92,0.00,,,0.00,meteohub,2013-06-02 15:02:00,
2013-06-02 11:07:00,67.3,63.9,29.91,SW,217,9.0,17.0,89,0.00,,,0.00,meteohub,2013-06-02 15:07:00,
2013-06-02 11:12:00,67.5,64.4,29.91,SSW,200,8.0,19.0,90,0.00,,,0.00,meteohub,2013-06-02 15:12:00,
2013-06-02 11:17:00,67.6,64.2,29.91,WSW,248,11.0,19.0,89,0.00,,,0.00,meteohub,2013-06-02 15:17:00,
2013-06-02 11:22:00,67.6,64.2,29.91,SW,217,11.0,19.0,89,0.00,,,0.00,meteohub,2013-06-02 15:22:00,
2013-06-02 11:27:00,67.6,64.2,29.91,SW,216,14.0,19.0,89,0.00,,,0.00,meteohub,2013-06-02 15:27:00,
2013-06-02 11:32:00,67.6,64.0,29.91,SW,235,16.0,19.0,88,0.00,,,0.00,meteohub,2013-06-02 15:32:00,
2013-06-02 11:37:00,67.8,64.2,29.91,SW,222,14.0,19.0,88,0.00,,,0.00,meteohub,2013-06-02 15:37:00,
2013-06-02 11:42:00,68.0,64.4,29.91,SSW,205,15.0,21.0,88,0.00,,,0.00,meteohub,2013-06-02 15:42:00,
2013-06-02 11:47:00,67.8,64.2,29.91,South,188,13.0,21.0,88,0.00,,,0.00,meteohub,2013-06-02 15:47:00,
2013-06-02 11:52:00,67.8,64.2,29.91,SSW,212,10.0,21.0,88,0.00,,,0.00,meteohub,2013-06-02 15:52:00,
2013-06-02 11:57:00,67.8,64.2,29.91,SSW,197,9.0,19.0,88,0.00,,,0.00,meteohub,2013-06-02 15:57:00,
2013-06-02 12:02:00,67.6,64.0,29.91,SW,222,14.0,18.0,88,0.00,,,0.00,meteohub,2013-06-02 16:02:00,
2013-06-02 12:07:00,67.5,64.0,29.91,SSW,198,12.0,20.0,89,0.00,,,0.00,meteohub,2013-06-02 16:07:00,
2013-06-02 12:12:00,67.3,63.9,29.91,SSW,210,12.0,21.0,89,0.00,,,0.00,meteohub,2013-06-02 16:12:00,
2013-06-02 12:17:00,67.3,63.9,29.91,SSW,207,9.0,21.0,89,0.00,,,0.00,meteohub,2013-06-02 16:17:00,
2013-06-02 12:22:00,67.8,64.2,29.91,South,181,14.0,20.0,88,0.00,,,0.00,meteohub,2013-06-02 16:22:00,
2013-06-02 12:27:00,67.6,64.0,29.91,South,187,15.0,20.0,88,0.00,,,0.00,meteohub,2013-06-02 16:27:00,
2013-06-02 12:32:00,67.8,64.2,29.91,WSW,252,10.0,20.0,88,0.00,,,0.00,meteohub,2013-06-02 16:32:00,
2013-06-02 12:37:00,67.6,64.0,29.91,SSW,206,19.0,25.0,88,0.00,,,0.00,meteohub,2013-06-02 16:37:00,
2013-06-02 12:42:00,67.6,64.2,29.91,SSW,200,11.0,25.0,89,0.00,,,0.00,meteohub,2013-06-02 16:42:00,
2013-06-02 12:47:00,67.5,63.9,29.91,SSW,198,12.0,25.0,88,0.00,,,0.00,meteohub,2013-06-02 16:47:00,
2013-06-02 12:52:00,67.3,63.7,29.90,SSW,193,16.0,21.0,88,0.00,,,0.00,meteohub,2013-06-02 16:52:00,
2013-06-02 12:57:00,66.9,63.5,29.90,SSW,207,16.0,21.0,89,0.00,,,0.00,meteohub,2013-06-02 16:57:00,
2013-06-02 13:02:00,66.7,63.3,29.91,SSW,199,14.0,21.0,89,0.00,,,0.00,meteohub,2013-06-02 17:02:00,
2013-06-02 13:07:00,66.6,63.1,29.90,SSW,200,16.0,21.0,89,0.00,,,0.00,meteohub,2013-06-02 17:07:00,
2013-06-02 13:12:00,66.6,63.5,29.90,South,172,16.0,20.0,90,0.00,,,0.00,meteohub,2013-06-02 17:12:00,
2013-06-02 13:17:00,66.6,63.5,29.90,South,185,14.0,20.0,90,0.00,,,0.00,meteohub,2013-06-02 17:17:00,
2013-06-02 13:22:00,66.6,63.5,29.90,South,183,15.0,21.0,90,0.00,,,0.00,meteohub,2013-06-02 17:22:00,
2013-06-02 13:27:00,66.7,63.7,29.91,SW,219,21.0,23.0,90,0.00,,,0.00,meteohub,2013-06-02 17:27:00,
2013-06-02 13:32:00,66.4,63.0,29.90,SSW,203,16.0,23.0,89,0.00,,,0.00,meteohub,2013-06-02 17:32:00,
2013-06-02 13:37:00,66.6,63.5,29.91,SSW,194,14.0,22.0,90,0.00,,,0.00,meteohub,2013-06-02 17:37:00,
2013-06-02 13:42:00,66.6,63.5,29.90,SSW,203,21.0,22.0,90,0.00,,,0.00,meteohub,2013-06-02 17:42:00,
2013-06-02 13:47:00,66.4,63.0,29.90,South,174,16.0,22.0,89,0.00,,,0.00,meteohub,2013-06-02 17:47:00,
2013-06-02 13:52:00,66.0,63.0,29.89,SSW,204,17.0,22.0,90,0.00,,,0.00,meteohub,2013-06-02 17:52:00,
2013-06-02 13:57:00,65.8,62.8,29.89,South,190,19.0,22.0,90,0.00,,,0.00,meteohub,2013-06-02 17:57:00,
2013-06-02 14:02:00,65.5,62.8,29.89,SSW,212,15.0,22.0,91,0.00,,,0.00,meteohub,2013-06-02 18:02:00,
2013-06-02 14:07:00,65.5,62.4,29.89,SSW,210,20.0,24.0,90,0.00,,,0.00,meteohub,2013-06-02 18:07:00,
2013-06-02 14:12:00,65.1,62.4,29.89,SSW,198,16.0,24.0,91,0.00,,,0.00,meteohub,2013-06-02 18:12:00,
2013-06-02 14:17:00,64.8,62.1,29.89,South,188,19.0,25.0,91,0.00,,,0.00,meteohub,2013-06-02 18:17:00,
2013-06-02 14:22:00,64.6,62.2,29.89,SSW,195,13.0,25.0,92,0.00,,,0.00,meteohub,2013-06-02 18:22:00,
2013-06-02 14:27:00,64.6,62.2,29.89,SSW,201,13.0,25.0,92,0.00,,,0.00,meteohub,2013-06-02 18:27:00,
2013-06-02 14:32:00,64.9,62.6,29.89,SSW,201,16.0,24.0,92,0.00,,,0.00,meteohub,2013-06-02 18:32:00,
2013-06-02 14:37:00,65.3,62.6,29.89,SSW,193,19.0,24.0,91,0.00,,,0.00,meteohub,2013-06-02 18:37:00,
2013-06-02 14:42:00,65.5,62.8,29.89,SSW,212,16.0,25.0,91,0.00,,,0.00,meteohub,2013-06-02 18:42:00,
2013-06-02 14:47:00,65.5,62.4,29.89,SSW,201,19.0,25.0,90,0.00,,,0.00,meteohub,2013-06-02 18:47:00,
2013-06-02 14:52:00,65.5,62.8,29.89,SW,215,19.0,26.0,91,0.00,,,0.00,meteohub,2013-06-02 18:52:00,
2013-06-02 14:57:00,65.5,62.4,29.88,SSW,205,23.0,26.0,90,0.00,,,0.00,meteohub,2013-06-02 18:57:00,
2013-06-02 15:02:00,65.5,62.8,29.88,SSW,201,21.0,26.0,91,0.00,,,0.00,meteohub,2013-06-02 19:02:00,
2013-06-02 15:07:00,65.7,62.6,29.88,SSW,210,15.0,26.0,90,0.00,,,0.00,meteohub,2013-06-02 19:07:00,
2013-06-02 15:12:00,65.7,62.6,29.88,SW,218,18.0,26.0,90,0.00,,,0.00,meteohub,2013-06-02 19:12:00,
2013-06-02 15:17:00,65.5,62.4,29.88,SW,222,18.0,29.0,90,0.00,,,0.00,meteohub,2013-06-02 19:17:00,
2013-06-02 15:22:00,65.7,62.6,29.88,SSW,194,17.0,29.0,90,0.00,,,0.00,meteohub,2013-06-02 19:22:00,
2013-06-02 15:27:00,65.8,63.1,29.88,SW,218,11.0,29.0,91,0.00,,,0.00,meteohub,2013-06-02 19:27:00,
2013-06-02 15:32:00,65.8,62.8,29.88,SSW,200,11.0,27.0,90,0.00,,,0.00,meteohub,2013-06-02 19:32:00,
2013-06-02 15:37:00,65.7,62.2,29.87,SSW,205,17.0,27.0,89,0.00,,,0.00,meteohub,2013-06-02 19:37:00,
2013-06-02 15:42:00,65.8,62.8,29.88,SSW,210,21.0,27.0,90,0.00,,,0.00,meteohub,2013-06-02 19:42:00,
2013-06-02 15:47:00,65.7,62.6,29.88,SSW,201,17.0,29.0,90,0.00,,,0.00,meteohub,2013-06-02 19:47:00,
2013-06-02 15:52:00,65.8,62.8,29.88,South,188,23.0,31.0,90,0.00,,,0.00,meteohub,2013-06-02 19:52:00,
2013-06-02 15:57:00,65.8,62.8,29.88,SW,224,21.0,31.0,90,0.00,,,0.00,meteohub,2013-06-02 19:57:00,
2013-06-02 16:02:00,66.0,63.0,29.87,SSW,207,18.0,31.0,90,0.00,,,0.00,meteohub,2013-06-02 20:02:00,
2013-06-02 16:07:00,66.2,63.1,29.87,SW,218,23.0,26.0,90,0.00,,,0.00,meteohub,2013-06-02 20:07:00,
2013-06-02 16:12:00,66.0,62.6,29.87,SSW,197,19.0,26.0,89,0.00,,,0.00,meteohub,2013-06-02 20:12:00,
2013-06-02 16:17:00,66.2,63.1,29.87,SW,214,15.0,26.0,90,0.00,,,0.00,meteohub,2013-06-02 20:17:00,
2013-06-02 16:22:00,66.2,62.8,29.86,SSW,208,17.0,26.0,89,0.00,,,0.00,meteohub,2013-06-02 20:22:00,
2013-06-02 16:27:00,65.8,62.8,29.86,SSW,201,16.0,25.0,90,0.00,,,0.00,meteohub,2013-06-02 20:27:00,
2013-06-02 16:32:00,65.8,63.1,29.87,WSW,252,13.0,26.0,91,0.00,,,0.00,meteohub,2013-06-02 20:32:00,
2013-06-02 16:37:00,66.0,63.3,29.86,SSW,201,14.0,26.0,91,0.00,,,0.00,meteohub,2013-06-02 20:37:00,
2013-06-02 16:42:00,66.0,63.3,29.87,SSW,204,15.0,26.0,91,0.00,,,0.00,meteohub,2013-06-02 20:42:00,
2013-06-02 16:47:00,66.4,63.3,29.86,SW,215,20.0,26.0,90,0.00,,,0.00,meteohub,2013-06-02 20:47:00,
2013-06-02 16:52:00,66.0,63.0,29.86,SW,230,19.0,24.0,90,0.00,,,0.00,meteohub,2013-06-02 20:52:00,
2013-06-02 16:57:00,66.0,63.0,29.86,SW,224,14.0,27.0,90,0.00,,,0.00,meteohub,2013-06-02 20:57:00,
2013-06-02 17:02:00,66.0,63.0,29.86,SSW,210,13.0,27.0,90,0.00,,,0.00,meteohub,2013-06-02 21:02:00,
2013-06-02 17:07:00,65.7,62.6,29.86,SSW,193,15.0,27.0,90,0.00,,,0.00,meteohub,2013-06-02 21:07:00,
2013-06-02 17:12:00,65.7,63.0,29.86,SW,224,18.0,25.0,91,0.00,,,0.00,meteohub,2013-06-02 21:12:00,
2013-06-02 17:17:00,65.7,63.0,29.86,South,187,20.0,25.0,91,0.00,,,0.00,meteohub,2013-06-02 21:17:00,
2013-06-02 17:22:00,65.7,63.0,29.86,SW,217,22.0,25.0,91,0.00,,,0.00,meteohub,2013-06-02 21:22:00,
2013-06-02 17:27:00,65.5,62.8,29.86,SSW,212,16.0,24.0,91,0.00,,,0.00,meteohub,2013-06-02 21:27:00,
2013-06-02 17:32:00,65.5,62.8,29.86,SW,225,16.0,30.0,91,0.00,,,0.00,meteohub,2013-06-02 21:32:00,
2013-06-02 17:37:00,65.5,63.1,29.86,SW,229,18.0,30.0,92,0.00,,,0.00,meteohub,2013-06-02 21:37:00,
2013-06-02 17:42:00,65.5,62.8,29.86,SSW,211,16.0,30.0,91,0.00,,,0.00,meteohub,2013-06-02 21:42:00,
2013-06-02 17:47:00,65.3,62.6,29.85,SW,231,16.0,25.0,91,0.00,,,0.00,meteohub,2013-06-02 21:47:00,
2013-06-02 17:52:00,64.9,62.2,29.86,SW,229,15.0,31.0,91,0.00,,,0.00,meteohub,2013-06-02 21:52:00,
2013-06-02 17:57:00,64.8,62.4,29.86,SW,220,9.0,31.0,92,0.00,,,0.00,meteohub,2013-06-02 21:57:00,
2013-06-02 18:02:00,64.2,61.9,29.86,SSW,205,12.0,31.0,92,0.00,,,0.00,meteohub,2013-06-02 22:02:00,
2013-06-02 18:07:00,64.0,62.1,29.86,SSW,211,9.0,22.0,93,0.00,,,0.00,meteohub,2013-06-02 22:07:00,
2013-06-02 18:12:00,63.9,62.1,29.86,SW,218,17.0,22.0,94,0.00,,,0.00,meteohub,2013-06-02 22:12:00,
2013-06-02 18:17:00,63.9,62.1,29.86,SW,215,12.0,22.0,94,0.00,,,0.00,meteohub,2013-06-02 22:17:00,
2013-06-02 18:22:00,63.9,62.1,29.86,SSW,206,15.0,22.0,94,0.00,,,0.00,meteohub,2013-06-02 22:22:00,
2013-06-02 18:27:00,63.9,62.1,29.86,South,184,16.0,23.0,94,0.00,,,0.00,meteohub,2013-06-02 22:27:00,
2013-06-02 18:32:00,63.9,62.1,29.87,West,263,10.0,24.0,94,0.00,,,0.00,meteohub,2013-06-02 22:32:00,
2013-06-02 18:37:00,64.0,62.2,29.87,SW,215,12.0,24.0,94,0.00,,,0.00,meteohub,2013-06-02 22:37:00,
2013-06-02 18:42:00,64.2,62.4,29.87,SSW,205,12.0,24.0,94,0.00,,,0.00,meteohub,2013-06-02 22:42:00,
2013-06-02 18:47:00,64.2,62.4,29.87,SSW,204,12.0,24.0,94,0.00,,,0.00,meteohub,2013-06-02 22:47:00,
2013-06-02 18:52:00,64.2,62.4,29.86,SSW,207,14.0,24.0,94,0.00,,,0.00,meteohub,2013-06-02 22:52:00,
2013-06-02 18:57:00,64.0,62.2,29.86,SW,236,13.0,29.0,94,0.00,,,0.00,meteohub,2013-06-02 22:57:00,
2013-06-02 19:02:00,64.0,62.6,29.86,WSW,241,14.0,29.0,95,0.00,,,0.00,meteohub,2013-06-02 23:02:00,
2013-06-02 19:07:00,63.9,62.4,29.86,SSW,200,12.0,25.0,95,0.00,,,0.00,meteohub,2013-06-02 23:07:00,
2013-06-02 19:12:00,63.7,62.2,29.86,SW,215,12.0,24.0,95,0.00,,,0.00,meteohub,2013-06-02 23:12:00,
2013-06-02 19:17:00,63.7,62.2,29.87,SW,221,11.0,24.0,95,0.00,,,0.00,meteohub,2013-06-02 23:17:00,
2013-06-02 19:22:00,63.5,62.1,29.87,SW,215,9.0,20.0,95,0.00,,,0.00,meteohub,2013-06-02 23:22:00,
2013-06-02 19:27:00,63.3,61.9,29.87,WSW,252,9.0,20.0,95,0.00,,,0.00,meteohub,2013-06-02 23:27:00,
2013-06-02 19:32:00,63.3,61.9,29.87,SW,222,14.0,20.0,95,0.00,,,0.00,meteohub,2013-06-02 23:32:00,
2013-06-02 19:37:00,63.3,61.9,29.87,SSW,198,12.0,18.0,95,0.00,,,0.00,meteohub,2013-06-02 23:37:00,
2013-06-02 19:42:00,63.3,62.2,29.87,South,190,11.0,22.0,96,0.00,,,0.00,meteohub,2013-06-02 23:42:00,
2013-06-02 19:47:00,63.5,62.4,29.87,SW,236,10.0,22.0,96,0.00,,,0.00,meteohub,2013-06-02 23:47:00,
2013-06-02 19:52:00,63.7,62.2,29.86,SW,222,5.0,22.0,95,0.00,,,0.00,meteohub,2013-06-02 23:52:00,
2013-06-02 19:57:00,63.7,62.2,29.87,SW,236,16.0,18.0,95,0.00,,,0.00,meteohub,2013-06-02 23:57:00,
2013-06-02 20:02:00,63.9,62.4,29.86,SSW,200,14.0,17.0,95,0.00,,,0.00,meteohub,2013-06-03 00:02:00,
2013-06-02 20:07:00,64.0,62.6,29.86,South,188,4.0,20.0,95,0.00,,,0.00,meteohub,2013-06-03 00:07:00,
2013-06-02 20:12:00,64.0,62.6,29.86,SSW,206,10.0,20.0,95,0.00,,,0.00,meteohub,2013-06-03 00:12:00,
2013-06-02 20:17:00,64.2,62.8,29.86,SW,224,11.0,20.0,95,0.00,,,0.00,meteohub,2013-06-03 00:17:00,
2013-06-02 20:22:00,64.2,62.8,29.87,SSW,195,13.0,17.0,95,0.00,,,0.00,meteohub,2013-06-03 00:22:00,
2013-06-02 20:27:00,64.4,62.6,29.87,SW,225,12.0,17.0,94,0.00,,,0.00,meteohub,2013-06-03 00:27:00,
2013-06-02 20:32:00,64.6,62.8,29.87,SW,221,13.0,16.0,94,0.00,,,0.00,meteohub,2013-06-03 00:32:00,
2013-06-02 20:37:00,64.6,62.8,29.87,SW,226,13.0,18.0,94,0.00,,,0.00,meteohub,2013-06-03 00:37:00,
2013-06-02 20:42:00,64.6,62.8,29.87,SW,222,12.0,19.0,94,0.00,,,0.00,meteohub,2013-06-03 00:42:00,
2013-06-02 20:47:00,64.4,62.6,29.87,SW,221,9.0,21.0,94,0.00,,,0.00,meteohub,2013-06-03 00:47:00,
2013-06-02 20:52:00,64.2,62.4,29.88,SW,225,9.0,21.0,94,0.00,,,0.00,meteohub,2013-06-03 00:52:00,
2013-06-02 20:57:00,64.0,62.2,29.87,South,185,10.0,21.0,94,0.00,,,0.00,meteohub,2013-06-03 00:57:00,
2013-06-02 21:02:00,64.0,62.6,29.87,SW,218,13.0,18.0,95,0.00,,,0.00,meteohub,2013-06-03 01:02:00,
2013-06-02 21:07:00,64.0,62.6,29.87,SW,221,10.0,18.0,95,0.00,,,0.00,meteohub,2013-06-03 01:07:00,
2013-06-02 21:12:00,63.9,62.4,29.88,SW,219,11.0,18.0,95,0.00,,,0.00,meteohub,2013-06-03 01:12:00,
2013-06-02 21:17:00,63.9,62.4,29.87,South,180,14.0,17.0,95,0.00,,,0.00,meteohub,2013-06-03 01:17:00,
2013-06-02 21:22:00,63.9,62.4,29.87,SSW,203,13.0,19.0,95,0.00,,,0.00,meteohub,2013-06-03 01:22:00,
2013-06-02 21:27:00,63.7,62.2,29.88,SW,215,12.0,19.0,95,0.00,,,0.00,meteohub,2013-06-03 01:27:00,
2013-06-02 21:32:00,63.5,62.1,29.87,SSW,197,11.0,20.0,95,0.00,,,0.00,meteohub,2013-06-03 01:32:00,
2013-06-02 21:37:00,63.7,62.6,29.87,SW,218,18.0,20.0,96,0.00,,,0.00,meteohub,2013-06-03 01:37:00,
2013-06-02 21:42:00,63.5,62.4,29.87,SSW,194,12.0,20.0,96,0.00,,,0.00,meteohub,2013-06-03 01:42:00,
2013-06-02 21:47:00,63.3,62.2,29.88,SSW,203,13.0,19.0,96,0.00,,,0.00,meteohub,2013-06-03 01:47:00,
2013-06-02 21:52:00,63.1,62.2,29.88,SW,215,14.0,19.0,97,0.00,,,0.00,meteohub,2013-06-03 01:52:00,
2013-06-02 21:57:00,63.0,61.9,29.88,WSW,239,4.0,19.0,96,0.00,,,0.00,meteohub,2013-06-03 01:57:00,
2013-06-02 22:02:00,63.0,62.1,29.88,SW,217,9.0,17.0,97,0.00,,,0.00,meteohub,2013-06-03 02:02:00,
2013-06-02 22:07:00,63.0,61.9,29.88,SSW,193,8.0,17.0,96,0.00,,,0.00,meteohub,2013-06-03 02:07:00,
2013-06-02 22:12:00,63.1,62.2,29.88,WSW,249,10.0,18.0,97,0.00,,,0.00,meteohub,2013-06-03 02:12:00,
2013-06-02 22:17:00,63.3,62.2,29.88,SSW,205,7.0,18.0,96,0.00,,,0.00,meteohub,2013-06-03 02:17:00,
2013-06-02 22:22:00,63.5,62.4,29.87,SW,217,19.0,19.0,96,0.00,,,0.00,meteohub,2013-06-03 02:22:00,
2013-06-02 22:27:00,63.7,62.6,29.87,SW,225,15.0,19.0,96,0.00,,,0.00,meteohub,2013-06-03 02:27:00,
2013-06-02 22:32:00,63.7,62.6,29.87,SSW,210,13.0,19.0,96,0.00,,,0.00,meteohub,2013-06-03 02:32:00,
2013-06-02 22:37:00,63.7,62.6,29.87,SW,220,8.0,19.0,96,0.00,,,0.00,meteohub,2013-06-03 02:37:00,
2013-06-02 22:42:00,63.7,62.6,29.87,SW,215,7.0,17.0,96,0.00,,,0.00,meteohub,2013-06-03 02:42:00,
2013-06-02 22:47:00,63.7,62.6,29.87,SSW,200,9.0,17.0,96,0.00,,,0.00,meteohub,2013-06-03 02:47:00,
2013-06-02 22:52:00,63.3,62.2,29.87,WSW,239,6.0,14.0,96,0.00,,,0.00,meteohub,2013-06-03 02:52:00,
2013-06-02 22:57:00,63.3,62.2,29.87,SW,220,9.0,13.0,96,0.00,,,0.00,meteohub,2013-06-03 02:57:00,
2013-06-02 23:02:00,63.3,62.2,29.87,SSW,198,6.0,13.0,96,0.00,,,0.00,meteohub,2013-06-03 03:02:00,
2013-06-02 23:07:00,63.1,62.1,29.87,SW,219,9.0,12.0,96,0.00,,,0.00,meteohub,2013-06-03 03:07:00,
2013-06-02 23:12:00,63.0,61.9,29.87,SW,218,8.0,14.0,96,0.00,,,0.00,meteohub,2013-06-03 03:12:00,
2013-06-02 23:17:00,63.0,61.9,29.87,SW,226,6.0,14.0,96,0.00,,,0.00,meteohub,2013-06-03 03:17:00,
2013-06-02 23:22:00,62.8,61.7,29.87,SW,215,8.0,15.0,96,0.00,,,0.00,meteohub,2013-06-03 03:22:00,
2013-06-02 23:27:00,62.8,61.9,29.87,SW,232,8.0,15.0,97,0.00,,,0.00,meteohub,2013-06-03 03:27:00,
2013-06-02 23:32:00,62.6,61.7,29.87,SW,218,7.0,13.0,97,0.00,,,0.00,meteohub,2013-06-03 03:32:00,
2013-06-02 23:37:00,62.6,61.7,29.87,SSW,198,8.0,13.0,97,0.00,,,0.00,meteohub,2013-06-03 03:37:00,
2013-06-02 23:42:00,62.4,61.5,29.87,South,178,8.0,13.0,97,0.00,,,0.00,meteohub,2013-06-03 03:42:00,
2013-06-02 23:47:00,62.4,61.5,29.88,WSW,245,5.0,12.0,97,0.00,,,0.00,meteohub,2013-06-03 03:47:00,
2013-06-02 23:52:00,62.4,61.5,29.87,SW,233,4.0,11.0,97,0.00,,,0.00,meteohub,2013-06-03 03:52:00,
2013-06-02 23:57:00,62.4,61.5,29.87,SSW,207,4.0,11.0,97,0.00,,,0.00,meteohub,2013-06-03 03:57:00,